This is the latest recevied weather packets stored in our database for station/object N6XE. If no packets are shown the sender has not sent any weather packets the latest 10 day(s).
| Time | Temp. | Humidity | Pressure | Rain* | Wind** | Luminosity | Snow |
|---|---|---|---|---|---|---|---|
| 1777701924 | 17.78° C | 74% | 1014.3 hPa | 0 mm | - | - | - |
| 1777700733 | 17.78° C | 73% | 1014.3 hPa | 0 mm | - | - | - |
| 1777699543 | 18.33° C | 73% | 1014.4 hPa | 0 mm | - | - | - |
| 1777698332 | 18.89° C | 71% | 1014.3 hPa | 0 mm | - | - | - |
| 1777688729 | 26.11° C | 55% | 1012.9 hPa | 0 mm | - | - | - |
| 1777679722 | 30° C | 49% | 1013.2 hPa | 0 mm | - | - | - |
| 1777673115 | 30° C | 46% | 1014.6 hPa | 0 mm | - | - | - |
| 1777671349 | 30° C | 44% | 1014.9 hPa | 0 mm | - | - | - |
| 1777667122 | 28.33° C | 46% | 1015.4 hPa | 0 mm | - | - | - |
| 1777662321 | 25.56° C | 51% | 1016.5 hPa | 0 mm | - | - | - |
| 1777658142 | 23.89° C | 54% | 1016.9 hPa | 0 mm | - | - | - |
| 1777649136 | 17.22° C | 74% | 1016.8 hPa | 0 mm | - | - | - |
| 1777648520 | 16.67° C | 76% | 1016.8 hPa | 0 mm | - | - | - |
| 1777643122 | 12.22° C | 93% | 1015.7 hPa | 0 mm | - | - | - |
| 1777641919 | 12.22° C | 92% | 1015.5 hPa | 0 mm | - | - | - |
| 1777632328 | 13.33° C | 85% | 1014.9 hPa | 0 mm | - | - | - |
| 1777627526 | 13.89° C | 82% | 1014.7 hPa | 0 mm | - | - | - |
| 1777621515 | 15° C | 75% | 1015.2 hPa | 0 mm | - | - | - |
| 1777619152 | 16.11° C | 68% | 1014.9 hPa | 0 mm | - | - | - |
| 1777617327 | 16.11° C | 67% | 1014.9 hPa | 0 mm | - | - | - |
| 1777603519 | 24.44° C | 45% | 1013.7 hPa | 0 mm | - | - | - |
| 1777601118 | 27.78° C | 42% | 1013.4 hPa | 0 mm | - | - | - |
| 1777596950 | 29.44° C | 39% | 1013.3 hPa | 0 mm | - | - | - |
| 1777595145 | 30° C | 39% | 1013.3 hPa | 0 mm | - | - | - |
| 1777590919 | 30° C | 39% | 1013.8 hPa | 0 mm | - | - | - |
* Rain latest hour (hover to see other rain measurements)
** Current wind speed in m/s (hover to see current wind gust speed)